sensor_id;sensor_type;location;lat;lon;timestamp;pressure;altitude;pressure_sealevel;temperature;humidity
62617;BME280;62539;51.190;6.808;2022-11-25T00:01:28;100853.13;;;18.78;58.26
62617;BME280;62539;51.190;6.808;2022-11-25T00:03:56;100847.16;;;18.75;58.07
62617;BME280;62539;51.190;6.808;2022-11-25T00:06:25;100847.25;;;18.72;58.19
62617;BME280;62539;51.190;6.808;2022-11-25T00:08:54;100843.84;;;18.68;58.31
62617;BME280;62539;51.190;6.808;2022-11-25T00:11:21;100846.56;;;18.65;58.33
62617;BME280;62539;51.190;6.808;2022-11-25T00:13:47;100841.44;;;18.62;58.45
62617;BME280;62539;51.190;6.808;2022-11-25T00:16:15;100850.22;;;18.61;58.51
62617;BME280;62539;51.190;6.808;2022-11-25T00:18:45;100843.34;;;18.57;58.46
62617;BME280;62539;51.190;6.808;2022-11-25T00:21:14;100843.41;;;18.55;58.51
62617;BME280;62539;51.190;6.808;2022-11-25T00:23:41;100829.53;;;18.51;58.49
62617;BME280;62539;51.190;6.808;2022-11-25T00:26:12;100825.22;;;18.49;58.67
62617;BME280;62539;51.190;6.808;2022-11-25T00:28:40;100827.94;;;18.47;58.81
62617;BME280;62539;51.190;6.808;2022-11-25T00:31:20;100826.31;;;18.43;58.94
62617;BME280;62539;51.190;6.808;2022-11-25T00:33:47;100821.09;;;18.42;58.91
62617;BME280;62539;51.190;6.808;2022-11-25T00:36:21;100827.31;;;18.39;58.92
62617;BME280;62539;51.190;6.808;2022-11-25T00:39:00;100823.88;;;18.37;59.03
62617;BME280;62539;51.190;6.808;2022-11-25T00:41:31;100818.66;;;18.35;58.90
62617;BME280;62539;51.190;6.808;2022-11-25T00:44:17;100817.94;;;18.32;59.11
62617;BME280;62539;51.190;6.808;2022-11-25T00:47:05;100814.50;;;18.30;59.25
62617;BME280;62539;51.190;6.808;2022-11-25T00:49:34;100822.41;;;18.28;59.06
62617;BME280;62539;51.190;6.808;2022-11-25T00:52:00;100818.13;;;18.26;59.36
62617;BME280;62539;51.190;6.808;2022-11-25T00:54:25;100814.69;;;18.24;59.32
62617;BME280;62539;51.190;6.808;2022-11-25T00:56:51;100813.81;;;18.23;59.33
62617;BME280;62539;51.190;6.808;2022-11-25T00:59:17;100810.44;;;18.19;59.30
62617;BME280;62539;51.190;6.808;2022-11-25T01:01:43;100813.06;;;18.19;59.42
62617;BME280;62539;51.190;6.808;2022-11-25T01:04:09;100816.59;;;18.18;59.32
62617;BME280;62539;51.190;6.808;2022-11-25T01:06:35;100812.28;;;18.16;59.57
62617;BME280;62539;51.190;6.808;2022-11-25T01:09:03;100821.97;;;18.15;59.40
62617;BME280;62539;51.190;6.808;2022-11-25T01:11:29;100815.00;;;18.14;59.34
62617;BME280;62539;51.190;6.808;2022-11-25T01:13:54;100821.16;;;18.13;59.45
62617;BME280;62539;51.190;6.808;2022-11-25T01:16:21;100821.19;;;18.12;59.45
62617;BME280;62539;51.190;6.808;2022-11-25T01:18:48;100818.63;;;18.10;59.42
62617;BME280;62539;51.190;6.808;2022-11-25T01:21:23;100817.81;;;18.08;59.62
62617;BME280;62539;51.190;6.808;2022-11-25T01:23:50;100810.78;;;18.09;59.49
62617;BME280;62539;51.190;6.808;2022-11-25T01:26:19;100813.47;;;18.07;59.54
62617;BME280;62539;51.190;6.808;2022-11-25T01:28:47;100811.75;;;18.06;59.63
62617;BME280;62539;51.190;6.808;2022-11-25T01:31:19;100810.03;;;18.05;59.57
62617;BME280;62539;51.190;6.808;2022-11-25T01:33:47;100815.28;;;18.05;59.60
62617;BME280;62539;51.190;6.808;2022-11-25T01:36:17;100813.56;;;18.04;59.60
62617;BME280;62539;51.190;6.808;2022-11-25T01:38:44;100810.94;;;18.04;59.72
62617;BME280;62539;51.190;6.808;2022-11-25T01:41:14;100814.47;;;18.03;59.60
62617;BME280;62539;51.190;6.808;2022-11-25T01:43:40;100813.66;;;18.01;59.64
62617;BME280;62539;51.190;6.808;2022-11-25T01:46:23;100817.19;;;17.98;59.90
62617;BME280;62539;51.190;6.808;2022-11-25T01:49:00;100807.56;;;17.99;59.92
62617;BME280;62539;51.190;6.808;2022-11-25T01:51:40;100813.72;;;17.98;59.68
62617;BME280;62539;51.190;6.808;2022-11-25T01:54:09;100814.56;;;17.98;59.59
62617;BME280;62539;51.190;6.808;2022-11-25T01:56:44;100817.25;;;17.97;59.67
62617;BME280;62539;51.190;6.808;2022-11-25T01:59:13;100812.84;;;17.97;59.72
62617;BME280;62539;51.190;6.808;2022-11-25T02:01:40;100817.25;;;17.97;59.75
62617;BME280;62539;51.190;6.808;2022-11-25T02:04:06;100814.66;;;17.95;60.01
62617;BME280;62539;51.190;6.808;2022-11-25T02:06:37;100812.09;;;17.93;59.76
62617;BME280;62539;51.190;6.808;2022-11-25T02:09:09;100817.34;;;17.93;59.79
62617;BME280;62539;51.190;6.808;2022-11-25T02:11:38;100815.63;;;17.92;59.85
62617;BME280;62539;51.190;6.808;2022-11-25T02:14:07;100811.22;;;17.93;59.86
62617;BME280;62539;51.190;6.808;2022-11-25T02:16:33;100798.16;;;17.91;59.77
62617;BME280;62539;51.190;6.808;2022-11-25T02:18:59;100799.06;;;17.90;59.65
62617;BME280;62539;51.190;6.808;2022-11-25T02:21:41;100795.56;;;17.90;59.74
62617;BME280;62539;51.190;6.808;2022-11-25T02:24:22;100786.84;;;17.89;59.99
62617;BME280;62539;51.190;6.808;2022-11-25T02:27:03;100794.72;;;17.89;59.83
62617;BME280;62539;51.190;6.808;2022-11-25T02:29:29;100787.75;;;17.88;59.88
62617;BME280;62539;51.190;6.808;2022-11-25T02:31:56;100784.34;;;17.86;59.96
62617;BME280;62539;51.190;6.808;2022-11-25T02:34:22;100784.34;;;17.86;59.80
62617;BME280;62539;51.190;6.808;2022-11-25T02:36:48;100789.59;;;17.86;59.77
62617;BME280;62539;51.190;6.808;2022-11-25T02:39:14;100786.16;;;17.84;59.96
62617;BME280;62539;51.190;6.808;2022-11-25T02:41:43;100791.41;;;17.84;59.72
62617;BME280;62539;51.190;6.808;2022-11-25T02:44:14;100787.00;;;17.85;59.94
62617;BME280;62539;51.190;6.808;2022-11-25T02:46:39;100794.91;;;17.83;59.92
62617;BME280;62539;51.190;6.808;2022-11-25T02:49:05;100789.69;;;17.83;59.83
62617;BME280;62539;51.190;6.808;2022-11-25T02:51:31;100794.91;;;17.83;59.78
62617;BME280;62539;51.190;6.808;2022-11-25T02:53:57;100788.81;;;17.83;60.01
62617;BME280;62539;51.190;6.808;2022-11-25T02:56:26;100801.00;;;17.84;59.72
62617;BME280;62539;51.190;6.808;2022-11-25T02:58:53;100801.06;;;17.82;59.97
62617;BME280;62539;51.190;6.808;2022-11-25T03:01:18;100808.94;;;17.82;59.97
62617;BME280;62539;51.190;6.808;2022-11-25T03:03:45;100804.59;;;17.81;59.93
62617;BME280;62539;51.190;6.808;2022-11-25T03:06:10;100807.22;;;17.81;59.90
62617;BME280;62539;51.190;6.808;2022-11-25T03:08:36;100801.19;;;17.79;60.07
62617;BME280;62539;51.190;6.808;2022-11-25T03:11:02;100795.94;;;17.79;59.88
62617;BME280;62539;51.190;6.808;2022-11-25T03:13:28;100801.19;;;17.79;59.93
62617;BME280;62539;51.190;6.808;2022-11-25T03:15:53;100802.91;;;17.78;59.88
62617;BME280;62539;51.190;6.808;2022-11-25T03:18:18;100795.97;;;17.77;59.82
62617;BME280;62539;51.190;6.808;2022-11-25T03:20:44;100797.75;;;17.77;59.97
62617;BME280;62539;51.190;6.808;2022-11-25T03:23:09;100795.13;;;17.77;59.98
62617;BME280;62539;51.190;6.808;2022-11-25T03:25:35;100804.72;;;17.76;59.78
62617;BME280;62539;51.190;6.808;2022-11-25T03:28:01;100810.84;;;17.77;59.90
62617;BME280;62539;51.190;6.808;2022-11-25T03:30:27;100802.97;;;17.77;59.92
62617;BME280;62539;51.190;6.808;2022-11-25T03:32:53;100806.50;;;17.76;59.87
62617;BME280;62539;51.190;6.808;2022-11-25T03:35:19;100799.47;;;17.76;59.92
62617;BME280;62539;51.190;6.808;2022-11-25T03:37:45;100803.91;;;17.76;60.01
62617;BME280;62539;51.190;6.808;2022-11-25T03:40:12;100805.69;;;17.74;59.96
62617;BME280;62539;51.190;6.808;2022-11-25T03:42:38;100811.78;;;17.74;59.89
62617;BME280;62539;51.190;6.808;2022-11-25T03:45:05;100821.44;;;17.74;59.86
62617;BME280;62539;51.190;6.808;2022-11-25T03:47:32;100822.34;;;17.73;59.86
62617;BME280;62539;51.190;6.808;2022-11-25T03:49:57;100829.34;;;17.72;59.81
62617;BME280;62539;51.190;6.808;2022-11-25T03:52:23;100830.22;;;17.73;60.12
62617;BME280;62539;51.190;6.808;2022-11-25T03:54:49;100828.50;;;17.72;60.03
62617;BME280;62539;51.190;6.808;2022-11-25T03:57:15;100832.88;;;17.71;59.75
62617;BME280;62539;51.190;6.808;2022-11-25T03:59:42;100837.28;;;17.71;60.00
62617;BME280;62539;51.190;6.808;2022-11-25T04:02:07;100840.75;;;17.71;59.99
62617;BME280;62539;51.190;6.808;2022-11-25T04:04:33;100845.16;;;17.71;59.86
62617;BME280;62539;51.190;6.808;2022-11-25T04:06:58;100848.63;;;17.71;60.02
62617;BME280;62539;51.190;6.808;2022-11-25T04:09:24;100854.78;;;17.70;59.84
62617;BME280;62539;51.190;6.808;2022-11-25T04:11:50;100853.94;;;17.70;60.13
62617;BME280;62539;51.190;6.808;2022-11-25T04:14:34;100852.22;;;17.69;60.00
62617;BME280;62539;51.190;6.808;2022-11-25T04:17:00;100846.09;;;17.68;59.77
62617;BME280;62539;51.190;6.808;2022-11-25T04:19:25;100848.78;;;17.67;59.97
62617;BME280;62539;51.190;6.808;2022-11-25T04:21:50;100845.28;;;17.66;60.04
62617;BME280;62539;51.190;6.808;2022-11-25T04:24:16;100853.13;;;17.66;60.09
62617;BME280;62539;51.190;6.808;2022-11-25T04:26:41;100848.81;;;17.65;60.27
62617;BME280;62539;51.190;6.808;2022-11-25T04:29:07;100855.81;;;17.65;60.04
62617;BME280;62539;51.190;6.808;2022-11-25T04:31:32;100857.56;;;17.64;60.12
62617;BME280;62539;51.190;6.808;2022-11-25T04:33:57;100848.84;;;17.63;59.99
62617;BME280;62539;51.190;6.808;2022-11-25T04:36:23;100856.72;;;17.63;59.81
62617;BME280;62539;51.190;6.808;2022-11-25T04:38:48;100860.16;;;17.66;59.92
62617;BME280;62539;51.190;6.808;2022-11-25T04:41:14;100860.97;;;17.68;59.92
62617;BME280;62539;51.190;6.808;2022-11-25T04:43:40;100870.41;;;17.75;59.78
62617;BME280;62539;51.190;6.808;2022-11-25T04:46:05;100858.00;;;17.80;59.63
62617;BME280;62539;51.190;6.808;2022-11-25T04:48:31;100868.31;;;17.86;59.32
62617;BME280;62539;51.190;6.808;2022-11-25T04:50:56;100868.97;;;17.93;59.20
62617;BME280;62539;51.190;6.808;2022-11-25T04:53:22;100874.03;;;17.99;59.08
62617;BME280;62539;51.190;6.808;2022-11-25T04:55:47;100874.75;;;18.06;59.02
62617;BME280;62539;51.190;6.808;2022-11-25T04:58:13;100872.84;;;18.11;58.73
62617;BME280;62539;51.190;6.808;2022-11-25T05:00:59;100876.19;;;18.16;58.89
62617;BME280;62539;51.190;6.808;2022-11-25T05:03:24;100876.94;;;18.20;58.67
62617;BME280;62539;51.190;6.808;2022-11-25T05:05:50;100877.72;;;18.24;58.82
62617;BME280;62539;51.190;6.808;2022-11-25T05:08:15;100882.88;;;18.27;58.51
62617;BME280;62539;51.190;6.808;2022-11-25T05:10:40;100885.41;;;18.30;58.62
62617;BME280;62539;51.190;6.808;2022-11-25T05:13:06;100889.75;;;18.31;58.40
62617;BME280;62539;51.190;6.808;2022-11-25T05:15:31;100891.47;;;18.32;58.48
62617;BME280;62539;51.190;6.808;2022-11-25T05:17:57;100894.91;;;18.34;58.46
62617;BME280;62539;51.190;6.808;2022-11-25T05:20:22;100897.47;;;18.35;58.28
62617;BME280;62539;51.190;6.808;2022-11-25T05:22:47;100896.53;;;18.38;58.30
62617;BME280;62539;51.190;6.808;2022-11-25T05:25:13;100898.28;;;18.38;58.43
62617;BME280;62539;51.190;6.808;2022-11-25T05:27:40;100905.31;;;18.37;58.42
62617;BME280;62539;51.190;6.808;2022-11-25T05:30:06;100907.88;;;18.39;58.31
62617;BME280;62539;51.190;6.808;2022-11-25T05:32:32;100906.94;;;18.41;58.32
62617;BME280;62539;51.190;6.808;2022-11-25T05:34:58;100912.09;;;18.44;58.24
62617;BME280;62539;51.190;6.808;2022-11-25T05:37:23;100915.53;;;18.46;58.11
62617;BME280;62539;51.190;6.808;2022-11-25T05:39:49;100920.69;;;18.49;58.25
62617;BME280;62539;51.190;6.808;2022-11-25T05:42:14;100919.72;;;18.52;58.05
62617;BME280;62539;51.190;6.808;2022-11-25T05:44:39;100920.44;;;18.56;57.88
62617;BME280;62539;51.190;6.808;2022-11-25T05:47:05;100918.63;;;18.58;58.07
62617;BME280;62539;51.190;6.808;2022-11-25T05:49:30;100921.13;;;18.62;57.89
62617;BME280;62539;51.190;6.808;2022-11-25T05:51:56;100923.66;;;18.65;57.76
62617;BME280;62539;51.190;6.808;2022-11-25T05:54:21;100915.72;;;18.67;57.91
62617;BME280;62539;51.190;6.808;2022-11-25T05:56:46;100924.38;;;18.71;57.74
62617;BME280;62539;51.190;6.808;2022-11-25T05:59:12;100921.66;;;18.72;57.88
62617;BME280;62539;51.190;6.808;2022-11-25T06:01:37;100925.09;;;18.74;57.86
62617;BME280;62539;51.190;6.808;2022-11-25T06:04:03;100931.16;;;18.76;57.83
62617;BME280;62539;51.190;6.808;2022-11-25T06:06:30;100932.78;;;18.80;57.96
62617;BME280;62539;51.190;6.808;2022-11-25T06:08:56;100940.69;;;18.80;57.82
62617;BME280;62539;51.190;6.808;2022-11-25T06:11:22;100940.63;;;18.82;57.60
62617;BME280;62539;51.190;6.808;2022-11-25T06:13:49;100942.28;;;18.85;57.68
62617;BME280;62539;51.190;6.808;2022-11-25T06:16:20;100945.84;;;18.84;57.55
62617;BME280;62539;51.190;6.808;2022-11-25T06:18:46;100945.84;;;18.84;57.55
62617;BME280;62539;51.190;6.808;2022-11-25T06:21:13;100951.09;;;18.84;57.74
62617;BME280;62539;51.190;6.808;2022-11-25T06:23:39;100958.06;;;18.85;57.53
62617;BME280;62539;51.190;6.808;2022-11-25T06:26:06;100964.28;;;18.82;57.57
62617;BME280;62539;51.190;6.808;2022-11-25T06:28:35;100951.19;;;18.80;57.53
62617;BME280;62539;51.190;6.808;2022-11-25T06:31:09;100966.16;;;18.78;57.65
62617;BME280;62539;51.190;6.808;2022-11-25T06:33:39;100962.59;;;18.79;57.66
62617;BME280;62539;51.190;6.808;2022-11-25T06:36:06;100961.69;;;18.80;57.65
62617;BME280;62539;51.190;6.808;2022-11-25T06:38:37;100965.13;;;18.83;57.63
62617;BME280;62539;51.190;6.808;2022-11-25T06:41:04;100979.09;;;18.85;57.46
62617;BME280;62539;51.190;6.808;2022-11-25T06:43:31;100974.66;;;18.87;57.80
62617;BME280;62539;51.190;6.808;2022-11-25T06:46:07;100985.97;;;18.89;57.62
62617;BME280;62539;51.190;6.808;2022-11-25T06:48:35;100981.53;;;18.91;57.73
62617;BME280;62539;51.190;6.808;2022-11-25T06:51:04;100983.25;;;18.92;57.69
62617;BME280;62539;51.190;6.808;2022-11-25T06:53:31;100985.84;;;18.93;57.75
62617;BME280;62539;51.190;6.808;2022-11-25T06:56:04;100992.84;;;18.93;57.73
62617;BME280;62539;51.190;6.808;2022-11-25T06:58:33;100995.38;;;18.98;57.54
62617;BME280;62539;51.190;6.808;2022-11-25T07:01:05;100995.38;;;18.98;57.70
62617;BME280;62539;51.190;6.808;2022-11-25T07:03:33;100995.38;;;18.96;57.73
62617;BME280;62539;51.190;6.808;2022-11-25T07:05:59;101000.69;;;18.94;57.66
62617;BME280;62539;51.190;6.808;2022-11-25T07:08:25;100998.09;;;18.93;57.56
62617;BME280;62539;51.190;6.808;2022-11-25T07:10:51;100998.06;;;18.94;57.20
62617;BME280;62539;51.190;6.808;2022-11-25T07:13:18;101004.25;;;18.93;57.13
62617;BME280;62539;51.190;6.808;2022-11-25T07:15:44;101012.13;;;18.93;57.16
62617;BME280;62539;51.190;6.808;2022-11-25T07:18:10;101006.91;;;18.92;57.10
62617;BME280;62539;51.190;6.808;2022-11-25T07:20:36;101012.97;;;18.94;57.13
62617;BME280;62539;51.190;6.808;2022-11-25T07:23:02;101017.41;;;18.92;56.85
62617;BME280;62539;51.190;6.808;2022-11-25T07:25:27;101026.22;;;18.91;57.13
62617;BME280;62539;51.190;6.808;2022-11-25T07:27:52;101024.50;;;18.90;57.11
62617;BME280;62539;51.190;6.808;2022-11-25T07:30:18;101027.19;;;18.88;57.39
62617;BME280;62539;51.190;6.808;2022-11-25T07:32:44;101034.25;;;18.86;57.22
62617;BME280;62539;51.190;6.808;2022-11-25T07:35:09;101043.09;;;18.84;57.56
62617;BME280;62539;51.190;6.808;2022-11-25T07:37:35;101041.34;;;18.84;57.68
62617;BME280;62539;51.190;6.808;2022-11-25T07:40:00;101052.66;;;18.86;57.26
62617;BME280;62539;51.190;6.808;2022-11-25T07:42:26;101056.13;;;18.87;57.42
62617;BME280;62539;51.190;6.808;2022-11-25T07:44:51;101056.03;;;18.90;57.37
62617;BME280;62539;51.190;6.808;2022-11-25T07:47:16;101068.19;;;18.94;57.28
62617;BME280;62539;51.190;6.808;2022-11-25T07:49:42;101068.16;;;18.95;57.20
62617;BME280;62539;51.190;6.808;2022-11-25T07:52:08;101070.72;;;18.99;57.18
62617;BME280;62539;51.190;6.808;2022-11-25T07:54:33;101076.72;;;19.02;57.14
62617;BME280;62539;51.190;6.808;2022-11-25T07:56:59;101078.44;;;19.03;57.07
62617;BME280;62539;51.190;6.808;2022-11-25T07:59:24;101076.63;;;19.05;57.03
62617;BME280;62539;51.190;6.808;2022-11-25T08:01:51;101077.44;;;19.07;57.12
62617;BME280;62539;51.190;6.808;2022-11-25T08:04:18;101080.94;;;19.08;56.85
62617;BME280;62539;51.190;6.808;2022-11-25T08:06:45;101080.88;;;19.09;56.99
62617;BME280;62539;51.190;6.808;2022-11-25T08:09:14;101079.97;;;19.10;56.88
62617;BME280;62539;51.190;6.808;2022-11-25T08:11:43;101085.22;;;19.10;56.88
62617;BME280;62539;51.190;6.808;2022-11-25T08:14:09;101087.81;;;19.12;56.80
62617;BME280;62539;51.190;6.808;2022-11-25T08:16:34;101093.91;;;19.13;56.84
62617;BME280;62539;51.190;6.808;2022-11-25T08:19:02;101100.91;;;19.14;56.84
62617;BME280;62539;51.190;6.808;2022-11-25T08:21:30;101116.69;;;19.14;56.82
62617;BME280;62539;51.190;6.808;2022-11-25T08:23:55;101115.88;;;19.12;57.01
62617;BME280;62539;51.190;6.808;2022-11-25T08:26:26;101105.31;;;19.13;56.78
62617;BME280;62539;51.190;6.808;2022-11-25T08:28:59;101117.56;;;19.14;56.85
62617;BME280;62539;51.190;6.808;2022-11-25T08:31:30;101123.66;;;19.15;56.69
62617;BME280;62539;51.190;6.808;2022-11-25T08:33:58;101127.06;;;19.18;56.67
62617;BME280;62539;51.190;6.808;2022-11-25T08:36:26;101133.19;;;19.19;56.69
62617;BME280;62539;51.190;6.808;2022-11-25T08:38:54;101138.34;;;19.22;56.65
62617;BME280;62539;51.190;6.808;2022-11-25T08:41:30;101138.31;;;19.23;56.39
62617;BME280;62539;51.190;6.808;2022-11-25T08:43:58;101139.06;;;19.27;56.46
62617;BME280;62539;51.190;6.808;2022-11-25T08:46:29;101144.22;;;19.30;56.43
62617;BME280;62539;51.190;6.808;2022-11-25T08:48:57;101143.13;;;19.37;56.38
62617;BME280;62539;51.190;6.808;2022-11-25T08:51:26;101138.56;;;19.43;56.31
62617;BME280;62539;51.190;6.808;2022-11-25T08:53:54;101145.41;;;19.48;55.92
62617;BME280;62539;51.190;6.808;2022-11-25T08:56:22;101139.13;;;19.52;56.17
62617;BME280;62539;51.190;6.808;2022-11-25T08:58:48;101145.16;;;19.56;55.92
62617;BME280;62539;51.190;6.808;2022-11-25T09:01:15;101146.03;;;19.57;56.15
62617;BME280;62539;51.190;6.808;2022-11-25T09:03:44;101139.78;;;19.59;55.76
62617;BME280;62539;51.190;6.808;2022-11-25T09:06:12;101150.22;;;19.62;55.80
62617;BME280;62539;51.190;6.808;2022-11-25T09:08:40;101148.38;;;19.64;55.66
62617;BME280;62539;51.190;6.808;2022-11-25T09:11:07;101153.53;;;19.67;55.72
62617;BME280;62539;51.190;6.808;2022-11-25T09:13:33;101161.50;;;19.66;55.62
62617;BME280;62539;51.190;6.808;2022-11-25T09:15:59;101160.63;;;19.65;55.91
62617;BME280;62539;51.190;6.808;2022-11-25T09:18:25;101174.59;;;19.67;55.81
62617;BME280;62539;51.190;6.808;2022-11-25T09:20:54;101170.16;;;19.69;55.88
62617;BME280;62539;51.190;6.808;2022-11-25T09:23:21;101174.41;;;19.74;55.63
62617;BME280;62539;51.190;6.808;2022-11-25T09:25:54;101183.97;;;19.76;55.48
62617;BME280;62539;51.190;6.808;2022-11-25T09:28:21;101182.91;;;19.82;55.54
62617;BME280;62539;51.190;6.808;2022-11-25T09:30:48;101192.41;;;19.86;55.33
62617;BME280;62539;51.190;6.808;2022-11-25T09:33:14;101195.00;;;19.89;55.15
62617;BME280;62539;51.190;6.808;2022-11-25T09:35:42;101204.47;;;19.95;55.04
62617;BME280;62539;51.190;6.808;2022-11-25T09:38:08;101202.69;;;19.95;55.13
62617;BME280;62539;51.190;6.808;2022-11-25T09:40:40;101200.03;;;19.95;54.98
62617;BME280;62539;51.190;6.808;2022-11-25T09:43:34;101206.22;;;19.94;55.06
62617;BME280;62539;51.190;6.808;2022-11-25T09:46:32;101203.50;;;19.97;54.92
62617;BME280;62539;51.190;6.808;2022-11-25T09:52:39;101211.38;;;19.97;54.82
62617;BME280;62539;51.190;6.808;2022-11-25T09:55:19;101213.00;;;20.02;54.89
62617;BME280;62539;51.190;6.808;2022-11-25T10:00:41;101224.25;;;20.07;54.87
62617;BME280;62539;51.190;6.808;2022-11-25T10:06:16;101235.25;;;20.20;54.21
62617;BME280;62539;51.190;6.808;2022-11-25T10:08:50;101227.06;;;20.27;54.10
62617;BME280;62539;51.190;6.808;2022-11-25T10:13:54;101232.09;;;20.35;53.92
62617;BME280;62539;51.190;6.808;2022-11-25T10:19:51;101237.94;;;20.44;54.23
62617;BME280;62539;51.190;6.808;2022-11-25T10:22:41;101243.03;;;20.48;53.92
62617;BME280;62539;51.190;6.808;2022-11-25T10:25:18;101246.34;;;20.55;53.98
62617;BME280;62539;51.190;6.808;2022-11-25T10:28:20;101241.69;;;20.62;53.67
62617;BME280;62539;51.190;6.808;2022-11-25T10:33:51;101253.50;;;20.75;53.70
62617;BME280;62539;51.190;6.808;2022-11-25T10:36:21;101254.38;;;20.76;53.49
62617;BME280;62539;51.190;6.808;2022-11-25T10:44:34;101261.13;;;20.84;53.31
62617;BME280;62539;51.190;6.808;2022-11-25T10:47:33;101259.28;;;20.87;53.16
62617;BME280;62539;51.190;6.808;2022-11-25T10:50:15;101260.09;;;20.89;52.97
62617;BME280;62539;51.190;6.808;2022-11-25T10:53:05;101266.81;;;20.97;53.04
62617;BME280;62539;51.190;6.808;2022-11-25T10:55:37;101269.97;;;21.07;52.98
62617;BME280;62539;51.190;6.808;2022-11-25T10:58:25;101275.47;;;21.01;53.03
62617;BME280;62539;51.190;6.808;2022-11-25T11:01:00;101272.03;;;20.99;52.84
62617;BME280;62539;51.190;6.808;2022-11-25T11:03:29;101274.44;;;21.05;52.95
62617;BME280;62539;51.190;6.808;2022-11-25T11:05:54;101280.41;;;21.10;53.07
62617;BME280;62539;51.190;6.808;2022-11-25T11:08:26;101282.88;;;21.15;52.37
62617;BME280;62539;51.190;6.808;2022-11-25T11:11:18;101282.22;;;21.08;52.47
62617;BME280;62539;51.190;6.808;2022-11-25T11:13:46;101285.69;;;21.10;52.87
62617;BME280;62539;51.190;6.808;2022-11-25T11:16:36;101289.22;;;21.09;52.77
62617;BME280;62539;51.190;6.808;2022-11-25T11:19:04;101292.56;;;21.14;52.66
62617;BME280;62539;51.190;6.808;2022-11-25T11:21:36;101288.03;;;21.18;52.34
62617;BME280;62539;51.190;6.808;2022-11-25T11:27:21;101288.66;;;21.25;52.08
62617;BME280;62539;51.190;6.808;2022-11-25T11:30:24;101294.94;;;21.44;51.49
62617;BME280;62539;51.190;6.808;2022-11-25T11:33:02;101295.91;;;21.66;50.89
62617;BME280;62539;51.190;6.808;2022-11-25T11:38:46;101301.03;;;21.70;51.15
62617;BME280;62539;51.190;6.808;2022-11-25T11:41:39;101307.72;;;21.55;51.51
62617;BME280;62539;51.190;6.808;2022-11-25T11:44:35;101305.41;;;21.48;51.66
62617;BME280;62539;51.190;6.808;2022-11-25T11:47:52;101303.91;;;21.40;51.87
62617;BME280;62539;51.190;6.808;2022-11-25T11:50:38;101304.72;;;21.42;51.59
62617;BME280;62539;51.190;6.808;2022-11-25T11:53:30;101313.44;;;21.44;51.66
62617;BME280;62539;51.190;6.808;2022-11-25T11:56:19;101317.13;;;21.64;51.05
62617;BME280;62539;51.190;6.808;2022-11-25T11:59:17;101318.59;;;21.71;51.30
62617;BME280;62539;51.190;6.808;2022-11-25T12:02:16;101320.56;;;21.66;51.23
62617;BME280;62539;51.190;6.808;2022-11-25T12:10:47;101325.16;;;21.59;51.66
62617;BME280;62539;51.190;6.808;2022-11-25T12:13:36;101325.34;;;21.79;50.58
62617;BME280;62539;51.190;6.808;2022-11-25T12:16:15;101325.00;;;21.88;50.76
62617;BME280;62539;51.190;6.808;2022-11-25T12:19:07;101335.97;;;21.99;50.23
62617;BME280;62539;51.190;6.808;2022-11-25T12:21:55;101344.00;;;22.41;49.24
62617;BME280;62539;51.190;6.808;2022-11-25T12:27:12;101350.66;;;22.93;48.10
62617;BME280;62539;51.190;6.808;2022-11-25T12:29:56;101349.69;;;23.14;47.88
62617;BME280;62539;51.190;6.808;2022-11-25T12:32:57;101361.06;;;23.37;47.00
62617;BME280;62539;51.190;6.808;2022-11-25T12:35:45;101366.34;;;23.56;46.78
62617;BME280;62539;51.190;6.808;2022-11-25T12:38:53;101372.59;;;23.74;45.95
62617;BME280;62539;51.190;6.808;2022-11-25T12:41:43;101362.91;;;23.92;46.02
62617;BME280;62539;51.190;6.808;2022-11-25T12:44:20;101361.94;;;24.13;45.46
62617;BME280;62539;51.190;6.808;2022-11-25T12:46:53;101376.47;;;24.23;45.67
62617;BME280;62539;51.190;6.808;2022-11-25T12:49:24;101378.03;;;24.27;45.10
62617;BME280;62539;51.190;6.808;2022-11-25T13:06:23;101393.50;;;22.80;48.82
62617;BME280;62539;51.190;6.808;2022-11-25T13:09:38;101394.66;;;22.52;48.07
62617;BME280;62539;51.190;6.808;2022-11-25T13:18:00;101407.44;;;22.41;50.00
62617;BME280;62539;51.190;6.808;2022-11-25T13:23:28;101414.16;;;22.27;51.18
62617;BME280;62539;51.190;6.808;2022-11-25T13:28:58;101416.84;;;22.26;51.58
62617;BME280;62539;51.190;6.808;2022-11-25T13:31:30;101423.16;;;22.22;52.01
62617;BME280;62539;51.190;6.808;2022-11-25T13:36:48;101425.88;;;22.20;52.60
62617;BME280;62539;51.190;6.808;2022-11-25T13:41:59;101426.16;;;22.12;52.37
62617;BME280;62539;51.190;6.808;2022-11-25T13:44:31;101433.25;;;22.12;52.24
62617;BME280;62539;51.190;6.808;2022-11-25T13:47:21;101436.59;;;21.93;52.72
62617;BME280;62539;51.190;6.808;2022-11-25T13:52:48;101451.00;;;21.84;52.53
62617;BME280;62539;51.190;6.808;2022-11-25T13:55:30;101446.72;;;21.82;52.86
62617;BME280;62539;51.190;6.808;2022-11-25T14:12:06;101461.66;;;21.57;52.44
62617;BME280;62539;51.190;6.808;2022-11-25T14:20:47;101478.91;;;21.42;52.98
62617;BME280;62539;51.190;6.808;2022-11-25T14:26:02;101485.44;;;21.32;53.25
62617;BME280;62539;51.190;6.808;2022-11-25T14:28:41;101485.22;;;21.38;52.66
62617;BME280;62539;51.190;6.808;2022-11-25T14:31:14;101492.31;;;21.36;53.38
62617;BME280;62539;51.190;6.808;2022-11-25T14:34:30;101496.31;;;21.23;53.76
62617;BME280;62539;51.190;6.808;2022-11-25T14:37:13;101500.84;;;21.19;53.78
62617;BME280;62539;51.190;6.808;2022-11-25T14:40:09;101498.50;;;21.10;54.21
62617;BME280;62539;51.190;6.808;2022-11-25T14:42:45;101502.06;;;21.09;54.12
62617;BME280;62539;51.190;6.808;2022-11-25T14:47:53;101509.31;;;21.02;54.29
62617;BME280;62539;51.190;6.808;2022-11-25T14:50:19;101516.41;;;21.00;54.16